Time;durP1;ratioP1;P1;durP2;ratioP2;P2;SDS_P1;SDS_P2;PMS_P1;PMS_P2;Temp;Humidity;BMP_temperature;BMP_pressure;BME280_temperature;BME280_humidity;BME280_pressure;Samples;Min_cycle;Max_cycle;Signal;HPM_P1;HPM_P2
2022/06/10 00:02:08;;;;;;;1.75;1.17;;;;;;;11.95;nan;101085.31;4988349;28;20329;-76
2022/06/10 00:04:34;;;;;;;1.95;1.25;;;;;;;11.94;nan;101083.66;4989524;28;20064;-77
2022/06/10 00:07:00;;;;;;;1.73;1.40;;;;;;;11.95;nan;101087.97;4987858;28;20038;-77
2022/06/10 00:09:25;;;;;;;2.15;1.65;;;;;;;11.99;nan;101085.84;4988490;28;20041;-77
2022/06/10 00:11:51;;;;;;;2.72;1.80;;;;;;;12.09;nan;101086.66;4970299;28;20030;-76
2022/06/10 00:14:16;;;;;;;4.05;1.70;;;;;;;12.17;nan;101083.25;4969116;28;20031;-76
2022/06/10 00:16:41;;;;;;;2.50;1.80;;;;;;;12.18;nan;101077.81;4987125;28;20149;-77
2022/06/10 00:19:07;;;;;;;2.83;1.88;;;;;;;12.19;nan;101070.69;4974024;28;20039;-77
2022/06/10 00:21:32;;;;;;;2.42;1.67;;;;;;;12.19;nan;101070.69;4989915;28;20399;-76
2022/06/10 00:23:57;;;;;;;1.67;1.38;;;;;;;12.13;nan;101073.91;4989872;28;20109;-76
2022/06/10 00:26:23;;;;;;;1.67;1.10;;;;;;;12.08;nan;101080.53;4988693;28;20492;-77
2022/06/10 00:28:48;;;;;;;1.92;1.40;;;;;;;12.04;nan;101078.31;4991492;28;20069;-77
2022/06/10 00:31:15;;;;;;;1.90;1.17;;;;;;;12.03;nan;101080.09;4989174;28;20034;-76
2022/06/10 00:33:40;;;;;;;1.55;1.13;;;;;;;12.06;nan;101078.97;4989527;28;20450;-75
2022/06/10 00:36:07;;;;;;;1.73;1.20;;;;;;;12.06;nan;101079.84;4986977;28;20125;-76
2022/06/10 00:38:32;;;;;;;2.42;1.50;;;;;;;12.06;nan;101084.28;4970693;28;20041;-76
2022/06/10 00:40:58;;;;;;;3.33;1.60;;;;;;;12.06;nan;101081.63;4990397;28;20035;-77
2022/06/10 00:43:26;;;;;;;1.67;1.40;;;;;;;12.05;nan;101080.78;4989914;28;20472;-76
2022/06/10 00:46:11;;;;;;;2.35;1.50;;;;;;;12.04;nan;101084.44;4989729;28;20045;-77
2022/06/10 00:48:53;;;;;;;1.80;1.20;;;;;;;12.01;nan;101092.69;4988708;28;20093;-77
2022/06/10 00:51:45;;;;;;;1.90;1.40;;;;;;;12.04;nan;101097.69;4989616;28;20045;-76
2022/06/10 00:54:19;;;;;;;2.10;1.30;;;;;;;12.04;nan;101087.09;4986219;28;20109;-76
2022/06/10 00:57:16;;;;;;;1.75;1.25;;;;;;;12.01;nan;101081.22;4990663;28;20042;-77
2022/06/10 01:00:00;;;;;;;1.83;1.45;;;;;;;12.00;nan;101095.47;4985622;28;20052;-77
2022/06/10 01:02:30;;;;;;;2.20;1.40;;;;;;;11.96;nan;101094.09;4993613;28;20057;-76
2022/06/10 01:04:57;;;;;;;1.95;1.52;;;;;;;11.90;nan;101095.53;4987805;28;20118;-76
2022/06/10 01:07:29;;;;;;;4.07;1.77;;;;;;;11.88;nan;101094.84;4987722;28;20034;-76
2022/06/10 01:09:55;;;;;;;2.55;1.90;;;;;;;11.92;nan;101096.22;4999494;28;20318;-77
2022/06/10 01:12:38;;;;;;;3.75;2.10;;;;;;;12.00;nan;101090.19;4992338;28;20116;-76
2022/06/10 01:15:12;;;;;;;4.68;2.08;;;;;;;12.04;nan;101092.38;4990655;28;20941;-77
2022/06/10 01:17:56;;;;;;;5.60;2.10;;;;;;;12.09;nan;101095.44;4989732;28;20173;-76
2022/06/10 01:20:46;;;;;;;1.90;1.42;;;;;;;12.08;nan;101093.78;4981749;28;20026;-77
2022/06/10 01:24:01;;;;;;;2.20;1.50;;;;;;;12.00;nan;101092.84;4968737;28;20030;-77
2022/06/10 01:29:53;;;;;;;1.30;1.10;;;;;;;11.86;nan;101091.47;4990611;28;20069;-76
2022/06/10 01:32:53;;;;;;;1.45;1.20;;;;;;;11.83;nan;101082.00;4983378;28;20563;-76
2022/06/10 01:35:47;;;;;;;1.75;1.27;;;;;;;11.81;nan;101089.25;4996767;28;20117;-77
2022/06/10 01:38:18;;;;;;;1.52;1.10;;;;;;;11.79;nan;101093.03;4983322;28;20447;-77
2022/06/10 01:41:08;;;;;;;1.88;1.40;;;;;;;11.75;nan;101091.63;4981604;28;20049;-77
2022/06/10 01:43:40;;;;;;;2.15;1.20;;;;;;;11.69;nan;101088.59;4984356;28;20144;-77
2022/06/10 01:46:25;;;;;;;1.88;1.20;;;;;;;11.64;nan;101090.03;4990264;28;20044;-77
2022/06/10 01:49:09;;;;;;;1.65;1.27;;;;;;;11.56;nan;101096.06;4986001;28;20041;-76
2022/06/10 01:52:07;;;;;;;1.92;1.17;;;;;;;11.52;nan;101099.97;4990375;28;20038;-77
2022/06/10 01:54:59;;;;;;;2.17;1.30;;;;;;;11.43;nan;101093.69;4980093;28;20362;-77
2022/06/10 01:57:57;;;;;;;2.65;1.60;;;;;;;11.37;nan;101093.44;4971701;28;20030;-76
2022/06/10 02:00:27;;;;;;;1.85;1.45;;;;;;;11.31;nan;101092.19;4987211;28;20097;-77
2022/06/10 02:03:04;;;;;;;1.95;1.60;;;;;;;11.26;nan;101097.91;4987800;28;20062;-77
2022/06/10 02:05:34;;;;;;;3.55;1.77;;;;;;;11.23;nan;101100.84;4989052;28;20042;-77
2022/06/10 02:08:14;;;;;;;1.90;1.60;;;;;;;11.21;nan;101092.22;4987275;28;20049;-76
2022/06/10 02:10:48;;;;;;;2.33;1.60;;;;;;;11.22;nan;101101.81;4984810;28;20642;-76
2022/06/10 02:13:18;;;;;;;3.28;1.85;;;;;;;11.26;nan;101103.22;4985286;28;20026;-75
2022/06/10 02:15:49;;;;;;;2.55;1.80;;;;;;;11.26;nan;101102.38;4988883;28;20034;-76
2022/06/10 02:18:21;;;;;;;2.38;1.65;;;;;;;11.26;nan;101100.56;4987235;28;20038;-75
2022/06/10 02:20:53;;;;;;;2.28;1.70;;;;;;;11.27;nan;101104.91;4988655;28;20431;-76
2022/06/10 02:23:24;;;;;;;1.67;1.20;;;;;;;11.23;nan;101106.16;4987462;28;20030;-76
2022/06/10 02:25:54;;;;;;;2.42;1.50;;;;;;;11.18;nan;101115.50;4990581;28;20141;-76
2022/06/10 02:28:35;;;;;;;2.33;1.45;;;;;;;11.14;nan;101114.09;4972281;28;20049;-76
2022/06/10 02:31:09;;;;;;;2.42;1.30;;;;;;;11.08;nan;101119.94;4986972;28;20045;-76
2022/06/10 02:33:36;;;;;;;2.78;1.42;;;;;;;11.03;nan;101125.66;4986561;28;20519;-76
2022/06/10 02:36:20;;;;;;;1.65;1.20;;;;;;;10.97;nan;101121.78;4970766;28;20054;-76
2022/06/10 02:38:57;;;;;;;2.25;1.45;;;;;;;11.01;nan;101127.59;4985510;28;20042;-75
2022/06/10 02:41:58;;;;;;;2.83;1.55;;;;;;;11.01;nan;101135.53;4968564;28;20034;-76
2022/06/10 02:44:41;;;;;;;3.05;1.52;;;;;;;11.03;nan;101131.78;4987787;28;20462;-76
2022/06/10 02:47:25;;;;;;;2.50;1.52;;;;;;;11.05;nan;101135.13;4988885;28;20089;-77
2022/06/10 02:49:51;;;;;;;1.90;1.38;;;;;;;11.07;nan;101134.19;4986523;28;20073;-76
2022/06/10 02:52:19;;;;;;;1.83;1.38;;;;;;;11.04;nan;101138.75;4986683;28;20070;-77
2022/06/10 02:54:45;;;;;;;2.13;1.40;;;;;;;11.04;nan;101137.94;4981534;28;20058;-76
2022/06/10 02:57:21;;;;;;;3.75;1.88;;;;;;;11.03;nan;101141.53;4989559;28;20022;-76
2022/06/10 03:02:42;;;;;;;2.15;1.60;;;;;;;10.96;nan;101145.72;4985947;28;20069;-76
2022/06/10 03:05:23;;;;;;;1.60;1.25;;;;;;;10.92;nan;101154.94;4987713;28;20201;-76
2022/06/10 03:08:18;;;;;;;2.10;1.48;;;;;;;10.88;nan;101158.81;4986949;28;20105;-76
2022/06/10 03:11:07;;;;;;;4.70;2.10;;;;;;;10.86;nan;101158.94;4983263;28;20039;-76
2022/06/10 03:13:54;;;;;;;4.45;2.08;;;;;;;10.86;nan;101163.41;4988786;28;20062;-76
2022/06/10 03:16:53;;;;;;;2.88;1.95;;;;;;;10.86;nan;101160.75;4984028;28;20031;-75
2022/06/10 03:19:37;;;;;;;4.13;1.90;;;;;;;10.85;nan;101162.59;4988710;28;20396;-75
2022/06/10 03:22:24;;;;;;;2.25;1.60;;;;;;;10.84;nan;101166.19;4987319;28;20046;-76
2022/06/10 03:25:09;;;;;;;1.83;1.38;;;;;;;10.81;nan;101167.28;4986207;28;20044;-76
2022/06/10 03:27:51;;;;;;;1.88;1.40;;;;;;;10.81;nan;101167.28;4994429;28;20098;-76
2022/06/10 03:30:21;;;;;;;2.88;1.30;;;;;;;10.79;nan;101163.13;4983199;28;20035;-76
2022/06/10 03:33:02;;;;;;;2.75;1.20;;;;;;;10.77;nan;101176.50;4984680;28;20038;-76
2022/06/10 03:35:33;;;;;;;1.50;1.17;;;;;;;10.76;nan;101173.97;4989978;28;20546;-76
2022/06/10 03:38:03;;;;;;;1.50;1.10;;;;;;;10.74;nan;101179.41;4987188;28;20092;-75
2022/06/10 03:40:30;;;;;;;1.90;1.17;;;;;;;10.72;nan;101177.88;4989490;28;20041;-75
2022/06/10 03:42:58;;;;;;;1.45;1.10;;;;;;;10.69;nan;101184.25;4988916;28;20069;-76
2022/06/10 03:45:32;;;;;;;1.85;1.17;;;;;;;10.67;nan;101183.56;4990385;28;20085;-76
2022/06/10 03:47:58;;;;;;;1.65;1.20;;;;;;;10.68;nan;101189.69;4990599;28;20096;-76
2022/06/10 03:50:26;;;;;;;2.92;1.30;;;;;;;10.67;nan;101188.84;4989786;28;20054;-76
2022/06/10 03:52:52;;;;;;;2.20;1.40;;;;;;;10.71;nan;101189.44;4990809;28;20399;-76
2022/06/10 03:55:19;;;;;;;2.05;1.30;;;;;;;10.75;nan;101194.31;4974648;28;20030;-76
2022/06/10 03:57:46;;;;;;;1.27;1.10;;;;;;;10.80;nan;101188.63;4992631;28;20038;-77
2022/06/10 04:00:18;;;;;;;1.50;1.17;;;;;;;10.83;nan;101196.28;4969672;28;20084;-76
2022/06/10 04:02:43;;;;;;;1.45;1.17;;;;;;;10.83;nan;101197.09;4989632;28;20391;-76
2022/06/10 04:05:09;;;;;;;1.52;1.23;;;;;;;10.85;nan;101204.91;4990349;28;20035;-76
2022/06/10 04:07:34;;;;;;;1.98;1.35;;;;;;;10.86;nan;101205.75;4991184;28;20046;-76
2022/06/10 04:10:00;;;;;;;1.48;1.15;;;;;;;10.90;nan;101209.78;4991488;28;20086;-76
2022/06/10 04:12:26;;;;;;;1.70;1.35;;;;;;;10.91;nan;101214.09;4987422;28;20470;-76
2022/06/10 04:14:52;;;;;;;2.22;1.20;;;;;;;10.94;nan;101214.69;4973420;28;20042;-76
2022/06/10 04:17:17;;;;;;;1.60;1.20;;;;;;;10.97;nan;101219.69;4988980;28;20030;-77
2022/06/10 04:19:43;;;;;;;1.60;1.02;;;;;;;11.03;nan;101221.75;4990241;28;20128;-77
2022/06/10 04:22:08;;;;;;;1.90;1.10;;;;;;;11.07;nan;101219.69;4988973;28;20503;-76
2022/06/10 04:24:34;;;;;;;1.70;1.15;;;;;;;11.12;nan;101224.56;4987859;28;20038;-76
2022/06/10 04:26:59;;;;;;;2.65;1.40;;;;;;;11.15;nan;101217.19;4988923;28;20116;-75
2022/06/10 04:29:25;;;;;;;2.60;1.30;;;;;;;11.21;nan;101229.88;4991229;28;20043;-76
2022/06/10 04:31:50;;;;;;;1.42;1.10;;;;;;;11.26;nan;101222.34;4989172;28;20077;-77
2022/06/10 04:34:16;;;;;;;1.80;1.33;;;;;;;11.34;nan;101228.75;4988337;28;20069;-76
2022/06/10 04:36:42;;;;;;;1.88;1.15;;;;;;;11.40;nan;101237.00;4990530;28;20242;-76
2022/06/10 04:39:08;;;;;;;2.60;1.48;;;;;;;11.48;nan;101238.94;4990534;28;20045;-76
2022/06/10 04:41:33;;;;;;;1.65;1.20;;;;;;;11.52;nan;101229.72;4969350;28;20031;-76
2022/06/10 04:43:59;;;;;;;1.80;1.30;;;;;;;11.62;nan;101235.03;4989097;28;20073;-76
2022/06/10 04:46:31;;;;;;;1.70;1.35;;;;;;;11.71;nan;101241.28;4988291;28;22520;-76
2022/06/10 04:48:57;;;;;;;2.30;1.30;;;;;;;11.78;nan;101248.53;4989943;28;20038;-76
2022/06/10 04:51:23;;;;;;;1.42;1.10;;;;;;;11.83;nan;101242.81;4990058;28;20034;-76
2022/06/10 04:53:48;;;;;;;2.28;1.50;;;;;;;11.88;nan;101241.41;4988690;28;20562;-76
2022/06/10 04:56:14;;;;;;;1.60;1.30;;;;;;;12.00;nan;101252.69;4989101;28;20026;-76
2022/06/10 04:58:39;;;;;;;1.70;1.20;;;;;;;12.09;nan;101249.19;4970684;28;20209;-76
2022/06/10 05:01:05;;;;;;;1.73;1.20;;;;;;;12.19;nan;101248.31;4988756;28;20109;-76
2022/06/10 05:03:30;;;;;;;2.13;1.30;;;;;;;12.30;nan;101248.97;4989891;28;20404;-76
2022/06/10 05:05:56;;;;;;;2.03;1.40;;;;;;;12.39;nan;101252.56;4989146;28;20403;-77
2022/06/10 05:08:21;;;;;;;1.90;1.20;;;;;;;12.50;nan;101254.22;4986994;28;20059;-76
2022/06/10 05:10:47;;;;;;;2.25;1.40;;;;;;;12.60;nan;101256.81;4989508;28;20127;-77
2022/06/10 05:13:16;;;;;;;3.75;2.50;;;;;;;12.72;nan;101258.28;4988265;28;20527;-76
2022/06/10 05:15:42;;;;;;;3.28;2.30;;;;;;;12.89;nan;101257.47;4989757;28;20104;-77
2022/06/10 05:18:07;;;;;;;5.07;2.53;;;;;;;12.98;nan;101261.06;4988053;28;20026;-76
2022/06/10 05:20:38;;;;;;;4.15;2.50;;;;;;;13.08;nan;101255.69;4972136;28;20043;-77
2022/06/10 05:23:04;;;;;;;3.40;2.42;;;;;;;13.19;nan;101266.09;4989743;28;20038;-77
2022/06/10 05:25:30;;;;;;;3.15;2.00;;;;;;;13.25;nan;101264.66;4988470;28;20093;-77
2022/06/10 05:27:56;;;;;;;3.67;2.20;;;;;;;13.30;nan;101265.94;4970794;28;20451;-76
2022/06/10 05:30:24;;;;;;;5.30;2.40;;;;;;;13.37;nan;101261.69;4987793;28;20031;-76
2022/06/10 05:32:50;;;;;;;3.78;2.40;;;;;;;13.43;nan;101262.03;4985169;28;20077;-76
2022/06/10 05:35:16;;;;;;;2.60;2.00;;;;;;;13.53;nan;101262.78;4988552;28;20062;-77
2022/06/10 05:37:42;;;;;;;2.65;1.80;;;;;;;13.64;nan;101272.38;4988893;28;20469;-77
2022/06/10 05:40:10;;;;;;;4.35;2.05;;;;;;;13.74;nan;101275.75;4988455;28;20042;-76
2022/06/10 05:42:35;;;;;;;3.75;1.83;;;;;;;13.91;nan;101269.56;4988883;28;20090;-78
2022/06/10 05:45:00;;;;;;;3.72;1.90;;;;;;;14.14;nan;101277.88;4991675;28;20054;-77
2022/06/10 05:47:29;;;;;;;4.50;1.88;;;;;;;14.45;nan;101269.41;4993319;28;20088;-76
2022/06/10 05:49:58;;;;;;;3.08;1.60;;;;;;;14.93;nan;101267.97;4969950;28;20043;-78
2022/06/10 05:52:27;;;;;;;4.13;2.15;;;;;;;15.46;nan;101271.22;4969885;28;20045;-76
2022/06/10 05:54:54;;;;;;;2.95;1.70;;;;;;;16.03;nan;101265.06;4990115;28;20585;-78
2022/06/10 05:57:21;;;;;;;2.53;1.58;;;;;;;16.61;nan;101271.88;4989307;28;20380;-78
2022/06/10 05:59:52;;;;;;;4.03;1.90;;;;;;;17.15;nan;101279.16;4991183;28;20702;-78
2022/06/10 06:02:19;;;;;;;4.40;2.10;;;;;;;17.57;nan;101276.03;4986907;28;20070;-77
2022/06/10 06:04:45;;;;;;;3.85;2.20;;;;;;;17.87;nan;101283.31;4982857;28;20138;-77
2022/06/10 06:07:17;;;;;;;4.68;2.15;;;;;;;18.18;nan;101280.50;4970661;28;20575;-77
2022/06/10 06:09:43;;;;;;;4.95;2.45;;;;;;;18.52;nan;101288.03;4989626;28;20031;-77
2022/06/10 06:12:09;;;;;;;3.25;1.95;;;;;;;18.84;nan;101277.94;4991024;28;20033;-77
2022/06/10 06:14:34;;;;;;;3.25;1.83;;;;;;;19.19;nan;101286.19;4987821;28;20041;-77
2022/06/10 06:17:02;;;;;;;3.22;1.77;;;;;;;19.51;nan;101290.19;4989647;28;20117;-77
2022/06/10 06:19:29;;;;;;;3.63;1.70;;;;;;;19.86;nan;101293.84;4984614;28;20034;-77
2022/06/10 06:21:55;;;;;;;4.80;1.98;;;;;;;20.08;nan;101291.13;4988769;28;20121;-77
2022/06/10 06:24:21;;;;;;;3.65;1.65;;;;;;;20.35;nan;101292.97;4986584;28;20556;-77
2022/06/10 06:26:46;;;;;;;2.80;1.80;;;;;;;20.58;nan;101298.06;4990011;28;20042;-76
2022/06/10 06:29:12;;;;;;;3.15;1.50;;;;;;;20.88;nan;101300.47;4989334;28;20487;-77
2022/06/10 06:31:38;;;;;;;2.63;1.23;;;;;;;21.18;nan;101305.53;4990299;28;20035;-78
2022/06/10 06:34:04;;;;;;;2.10;1.30;;;;;;;21.47;nan;101304.38;5001377;28;20569;-77
2022/06/10 06:36:35;;;;;;;2.30;1.15;;;;;;;21.77;nan;101307.50;4983902;28;20121;-77
2022/06/10 06:39:01;;;;;;;;;;;;;;;22.05;nan;101298.41;4974666;28;20105;-78
2022/06/10 06:41:27;;;;;;;2.97;1.70;;;;;;;22.22;nan;101296.13;4986998;28;19918;-77
2022/06/10 06:43:52;;;;;;;2.37;1.10;;;;;;;22.42;nan;101296.06;4988398;28;20030;-77
2022/06/10 06:46:18;;;;;;;3.80;1.70;;;;;;;22.50;nan;101311.16;4989616;28;20388;-78
2022/06/10 06:48:45;;;;;;;3.50;1.40;;;;;;;22.66;nan;101302.63;4990308;28;20405;-77
2022/06/10 06:51:11;;;;;;;3.90;1.30;;;;;;;22.84;nan;101293.84;4969003;28;20050;-76
2022/06/10 06:53:36;;;;;;;5.13;1.60;;;;;;;22.97;nan;101295.66;4974336;28;20177;-77
2022/06/10 06:56:04;;;;;;;3.00;1.70;;;;;;;23.03;nan;101298.34;4992370;28;20046;-78
2022/06/10 06:58:29;;;;;;;4.40;1.40;;;;;;;23.11;nan;101294.56;4988721;28;20038;-77
2022/06/10 07:00:55;;;;;;;2.85;1.27;;;;;;;23.44;nan;101291.66;4985363;28;20034;-77
2022/06/10 07:03:20;;;;;;;3.53;1.48;;;;;;;23.68;nan;101302.72;4968835;28;20030;-78
2022/06/10 07:05:46;;;;;;;3.35;1.50;;;;;;;23.76;nan;101302.44;4989907;28;20042;-77
2022/06/10 07:08:12;;;;;;;4.55;1.20;;;;;;;23.88;nan;101300.72;4988095;28;20035;-77
2022/06/10 07:10:38;;;;;;;3.95;1.52;;;;;;;23.93;nan;101303.56;4967379;28;20034;-77
2022/06/10 07:13:03;;;;;;;4.47;1.60;;;;;;;23.99;nan;101306.44;4969599;28;20051;-77
2022/06/10 07:15:28;;;;;;;2.63;1.00;;;;;;;24.12;nan;101296.34;4987630;28;20381;-77
2022/06/10 07:17:54;;;;;;;3.33;1.20;;;;;;;24.45;nan;101302.44;4973212;28;20047;-77
2022/06/10 07:20:26;;;;;;;2.40;1.15;;;;;;;24.50;nan;101298.03;4991405;28;20030;-78
2022/06/10 07:22:52;;;;;;;3.22;1.30;;;;;;;24.53;nan;101299.47;4974362;28;20057;-77
2022/06/10 07:25:20;;;;;;;3.17;1.00;;;;;;;24.64;nan;101305.97;4992502;28;20507;-77
2022/06/10 07:27:46;;;;;;;2.60;1.05;;;;;;;24.78;nan;101300.19;4994824;28;20206;-77
2022/06/10 07:30:15;;;;;;;2.28;1.10;;;;;;;24.85;nan;101305.50;4991689;28;20049;-78
2022/06/10 07:32:41;;;;;;;2.22;1.02;;;;;;;25.15;nan;101299.31;4994645;28;20041;-77
2022/06/10 07:35:06;;;;;;;1.75;0.80;;;;;;;25.55;nan;101298.72;5000601;28;20038;-78
2022/06/10 07:37:32;;;;;;;3.33;1.40;;;;;;;25.87;nan;101306.59;4976596;28;20038;-77
2022/06/10 07:39:57;;;;;;;2.58;1.10;;;;;;;26.02;nan;101309.66;4991803;28;20522;-77
2022/06/10 07:42:22;;;;;;;2.00;1.10;;;;;;;26.21;nan;101302.22;4993003;28;20030;-76
2022/06/10 07:44:48;;;;;;;1.95;1.00;;;;;;;26.56;nan;101294.06;4993124;28;20034;-78
2022/06/10 07:47:14;;;;;;;2.65;1.10;;;;;;;26.97;nan;101294.03;4993660;28;20039;-77
2022/06/10 07:49:40;;;;;;;4.10;1.50;;;;;;;27.23;nan;101295.38;4996126;28;20584;-78
2022/06/10 07:52:06;;;;;;;4.32;1.42;;;;;;;27.16;nan;101294.66;4992406;28;20138;-77
2022/06/10 07:54:34;;;;;;;2.28;1.13;;;;;;;27.09;nan;101284.78;4990953;28;20046;-78
2022/06/10 07:57:00;;;;;;;3.17;1.30;;;;;;;27.12;nan;101286.16;4992624;28;20049;-78
2022/06/10 07:59:25;;;;;;;3.22;1.05;;;;;;;27.27;nan;101288.41;4990835;28;20121;-78
2022/06/10 08:01:51;;;;;;;3.15;1.30;;;;;;;27.40;nan;101282.63;4990254;28;20042;-78
2022/06/10 08:04:16;;;;;;;4.13;1.38;;;;;;;27.60;nan;101293.03;4995219;28;20486;-78
2022/06/10 08:06:46;;;;;;;3.47;1.10;;;;;;;27.93;nan;101286.75;5003810;28;20518;-77
2022/06/10 08:09:12;;;;;;;3.15;1.25;;;;;;;28.42;nan;101286.09;4995401;28;20281;-78
2022/06/10 08:11:38;;;;;;;2.47;1.00;;;;;;;28.84;nan;101287.41;4974519;28;20031;-77
2022/06/10 08:14:06;;;;;;;2.05;1.05;;;;;;;29.17;nan;101284.53;4991682;28;20081;-78
2022/06/10 08:16:33;;;;;;;4.25;1.48;;;;;;;29.38;nan;101287.44;4992694;28;20479;-77
2022/06/10 08:18:59;;;;;;;2.40;1.05;;;;;;;29.50;nan;101290.00;4992113;28;20042;-78
2022/06/10 08:22:32;;;;;;;2.60;1.10;;;;;;;29.87;nan;101286.47;4975186;28;20085;-78
2022/06/10 08:24:16;;;;;;;;;;;;;;;30.12;nan;101281.19;4987913;28;20049;-77
2022/06/10 08:26:42;;;;;;;;;;;;;;;30.22;nan;101286.72;4994119;28;19926;-79
2022/06/10 08:29:07;;;;;;;4.75;1.67;;;;;;;30.25;nan;101283.47;4992580;28;20021;-79
2022/06/10 08:31:33;;;;;;;2.05;1.15;;;;;;;30.36;nan;101275.34;4992745;28;20042;-78
2022/06/10 08:33:59;;;;;;;3.05;1.10;;;;;;;30.71;nan;101273.84;4992126;28;20038;-78
2022/06/10 08:36:24;;;;;;;2.00;1.00;;;;;;;31.25;nan;101278.84;4993405;28;20399;-77
2022/06/10 08:38:50;;;;;;;1.97;0.90;;;;;;;31.33;nan;101278.31;4989175;28;20445;-78
2022/06/10 08:41:34;;;;;;;2.30;1.13;;;;;;;31.57;nan;101284.09;4991447;28;20472;-78
2022/06/10 08:44:07;;;;;;;;;;;;;;;31.69;nan;101279.16;4992345;28;20098;-78
2022/06/10 08:47:01;;;;;;;3.22;1.30;;;;;;;32.00;nan;101279.13;4989841;28;20296;-77
2022/06/10 08:49:57;;;;;;;3.63;1.55;;;;;;;32.49;nan;101275.69;4993748;28;20038;-78
2022/06/10 08:52:39;;;;;;;2.75;1.10;;;;;;;32.53;nan;101278.69;4975009;28;20121;-78
2022/06/10 08:55:32;;;;;;;3.40;1.20;;;;;;;32.82;nan;101283.47;4992694;28;20033;-78
2022/06/10 08:58:03;;;;;;;2.60;1.10;;;;;;;33.26;nan;101278.00;4994559;28;20034;-79
2022/06/10 09:00:31;;;;;;;;;;;;;;;33.47;nan;101275.91;4990347;28;20115;-78
2022/06/10 09:03:06;;;;;;;3.92;1.20;;;;;;;33.68;nan;101273.00;4991275;28;19922;-78
2022/06/10 09:05:39;;;;;;;2.83;1.00;;;;;;;34.02;nan;101272.94;4976960;28;20354;-78
2022/06/10 09:08:15;;;;;;;2.08;0.88;;;;;;;34.51;nan;101277.28;4990306;28;20551;-78
2022/06/10 09:10:47;;;;;;;2.42;1.10;;;;;;;34.52;nan;101278.13;4992173;28;20054;-77
2022/06/10 09:13:22;;;;;;;2.85;1.20;;;;;;;34.43;nan;101276.00;4988007;28;20432;-78
2022/06/10 09:16:03;;;;;;;3.70;1.10;;;;;;;34.67;nan;101266.94;4989665;28;20039;-78
2022/06/10 09:18:54;;;;;;;1.67;0.70;;;;;;;35.16;nan;101271.19;4981335;28;20034;-78
2022/06/10 09:21:29;;;;;;;3.80;1.20;;;;;;;35.81;nan;101267.59;4955531;28;20123;-77
2022/06/10 09:24:00;;;;;;;2.47;0.85;;;;;;;36.12;nan;101267.03;4992177;28;20041;-78
2022/06/10 09:26:39;;;;;;;1.60;0.80;;;;;;;36.00;nan;101267.50;4991452;28;20058;-78
2022/06/10 09:29:04;;;;;;;3.15;1.10;;;;;;;36.01;nan;101277.38;5002684;28;20060;-78
2022/06/10 09:31:40;;;;;;;2.35;0.80;;;;;;;35.93;nan;101273.41;4991371;28;20031;-76
2022/06/10 09:34:32;;;;;;;2.60;0.90;;;;;;;35.76;nan;101272.38;4987963;28;20133;-76
2022/06/10 09:37:17;;;;;;;3.40;0.90;;;;;;;36.04;nan;101270.44;4991587;28;20450;-77
2022/06/10 09:42:55;;;;;;;2.83;0.80;;;;;;;35.45;nan;101275.66;5002339;28;20073;-77
2022/06/10 09:45:50;;;;;;;2.90;0.68;;;;;;;35.62;nan;101280.63;4990898;28;20044;-77
2022/06/10 09:48:51;;;;;;;3.17;0.98;;;;;;;36.06;nan;101277.28;4990278;28;20683;-77
2022/06/10 09:51:24;;;;;;;;;;;;;;;36.40;nan;101283.50;4990858;28;20121;-77
2022/06/10 09:54:13;;;;;;;1.83;0.70;;;;;;;36.74;nan;101278.38;4990504;28;20034;-77
2022/06/10 09:56:56;;;;;;;2.88;0.90;;;;;;;37.32;nan;101270.41;4990591;28;20049;-77
2022/06/10 09:59:30;;;;;;;2.78;0.90;;;;;;;38.01;nan;101276.31;4990984;28;20049;-76
2022/06/10 10:02:11;;;;;;;2.88;1.00;;;;;;;38.07;nan;101263.19;4990780;28;20034;-77
2022/06/10 10:05:19;;;;;;;3.40;0.88;;;;;;;38.50;nan;101268.03;4984706;28;20038;-78
2022/06/10 10:08:00;;;;;;;3.05;0.75;;;;;;;38.47;nan;101267.84;4995648;28;20054;-77
2022/06/10 10:10:48;;;;;;;4.13;0.80;;;;;;;38.93;nan;101267.25;4992122;28;20050;-78
2022/06/10 10:13:45;;;;;;;1.88;0.80;;;;;;;38.53;nan;101249.97;4988525;28;20033;-77
2022/06/10 10:16:48;;;;;;;3.42;0.90;;;;;;;38.65;nan;101259.25;4982548;28;20053;-76
2022/06/10 10:19:30;;;;;;;3.58;0.80;;;;;;;38.59;nan;101256.97;4984291;28;20031;-77
2022/06/10 10:22:16;;;;;;;1.67;0.63;;;;;;;38.79;nan;101261.84;4985781;28;20410;-77
2022/06/10 10:24:44;;;;;;;4.10;1.00;;;;;;;38.65;nan;101252.91;4986308;28;20149;-77
2022/06/10 10:27:14;;;;;;;;;;;;;;;38.76;nan;101247.84;4991168;28;20105;-77
2022/06/10 10:29:43;;;;;;;;;;;;;;;38.98;nan;101253.25;4985819;28;19921;-77
2022/06/10 10:32:19;;;;;;;3.50;1.02;;;;;;;39.40;nan;101247.16;4987445;28;19984;-77
2022/06/10 10:34:50;;;;;;;2.13;0.82;;;;;;;39.74;nan;101248.19;4988122;28;20501;-77
2022/06/10 10:37:32;;;;;;;3.40;1.60;;;;;;;40.05;nan;101247.91;4971926;28;20402;-77
2022/06/10 10:40:18;;;;;;;;;;;;;;;39.88;nan;101246.03;4989821;28;20038;-78
2022/06/10 10:42:43;;;;;;;;;;;;;;;40.35;nan;101240.41;4987573;28;19948;-78
2022/06/10 10:45:32;;;;;;;3.40;0.93;;;;;;;40.62;nan;101238.22;4972023;28;19918;-76
2022/06/10 10:48:02;;;;;;;1.90;0.60;;;;;;;40.85;nan;101238.72;4990809;28;20422;-77
2022/06/10 10:50:32;;;;;;;1.13;0.50;;;;;;;40.57;nan;101243.97;4989147;28;20406;-77
2022/06/10 10:52:59;;;;;;;2.33;0.90;;;;;;;40.98;nan;101234.84;4986367;28;20035;-76
2022/06/10 10:55:36;;;;;;;3.17;0.75;;;;;;;41.04;nan;101230.69;4988244;28;20078;-77
2022/06/10 10:58:18;;;;;;;2.35;0.90;;;;;;;41.25;nan;101227.09;4987406;28;20112;-78
2022/06/10 11:00:45;;;;;;;3.10;1.00;;;;;;;41.55;nan;101228.56;4986525;28;20121;-76
2022/06/10 11:03:27;;;;;;;4.07;0.88;;;;;;;41.58;nan;101227.84;4985487;28;20042;-77
2022/06/10 11:05:54;;;;;;;2.58;1.02;;;;;;;41.63;nan;101229.59;4987500;28;20125;-77
2022/06/10 11:08:24;;;;;;;2.30;0.70;;;;;;;42.19;nan;101226.22;4964297;28;20074;-77
2022/06/10 11:11:17;;;;;;;1.63;0.68;;;;;;;42.73;nan;101225.84;4988508;28;20217;-77
2022/06/10 11:13:47;;;;;;;2.63;1.15;;;;;;;42.18;nan;101227.38;4987147;28;20034;-77
2022/06/10 11:16:31;;;;;;;2.50;1.08;;;;;;;41.87;nan;101217.66;4987728;28;20049;-77
2022/06/10 11:19:11;;;;;;;2.05;0.70;;;;;;;41.60;nan;101221.97;4987529;28;20061;-77
2022/06/10 11:22:06;;;;;;;2.92;0.90;;;;;;;41.83;nan;101215.94;4986508;28;20038;-76
2022/06/10 11:24:35;;;;;;;;;;;;;;;41.31;nan;101211.81;4970053;28;20045;-77
2022/06/10 11:27:18;;;;;;;2.08;0.80;;;;;;;41.78;nan;101211.41;4990373;28;19925;-76
2022/06/10 11:29:47;;;;;;;1.77;0.80;;;;;;;42.13;nan;101202.63;4965442;28;20311;-77
2022/06/10 11:32:24;;;;;;;2.40;0.90;;;;;;;42.77;nan;101212.03;4986888;28;20046;-76
2022/06/10 11:34:58;;;;;;;3.03;1.25;;;;;;;43.19;nan;101211.59;4987877;28;20115;-77
2022/06/10 11:37:37;;;;;;;3.55;1.60;;;;;;;43.45;nan;101213.88;4988840;28;20561;-78
2022/06/10 11:40:14;;;;;;;3.45;1.17;;;;;;;43.57;nan;101199.84;4985582;28;20095;-77
2022/06/10 11:42:51;;;;;;;1.77;0.70;;;;;;;43.76;nan;101201.09;4991323;28;20369;-77
2022/06/10 11:45:30;;;;;;;1.08;0.50;;;;;;;44.17;nan;101191.31;4979024;28;20423;-77
2022/06/10 11:48:02;;;;;;;1.08;0.50;;;;;;;44.45;nan;101188.34;4986249;28;20419;-77
2022/06/10 11:50:54;;;;;;;2.75;0.95;;;;;;;44.06;nan;101184.72;4984938;28;20333;-75
2022/06/10 11:53:39;;;;;;;1.30;0.60;;;;;;;44.06;nan;101179.13;4980603;28;20454;-76
2022/06/10 12:01:50;;;;;;;2.30;0.75;;;;;;;44.00;nan;101188.91;4985287;28;20142;-77
2022/06/10 12:04:23;;;;;;;1.88;0.70;;;;;;;44.20;nan;101192.56;4987965;28;20030;-77
2022/06/10 12:06:51;;;;;;;;;;;;;;;44.30;nan;101175.25;4987838;28;20383;-77
2022/06/10 12:09:20;;;;;;;;;;;;;;;44.50;nan;101179.66;4972314;28;19925;-77
2022/06/10 12:12:15;;;;;;;2.28;0.80;;;;;;;44.59;nan;101170.28;4989698;28;20005;-77
2022/06/10 12:14:47;;;;;;;2.20;0.90;;;;;;;44.52;nan;101162.56;4989387;28;20243;-77
2022/06/10 12:17:31;;;;;;;2.28;0.68;;;;;;;44.63;nan;101163.59;4989794;28;20116;-77
2022/06/10 12:20:04;;;;;;;1.95;0.70;;;;;;;44.10;nan;101166.88;4989872;28;20507;-77
2022/06/10 12:22:29;;;;;;;2.88;0.88;;;;;;;43.07;nan;101159.59;4986301;28;20154;-76
2022/06/10 12:24:56;;;;;;;1.98;0.88;;;;;;;41.64;nan;101158.19;4987390;28;20078;-75
2022/06/10 12:27:35;;;;;;;21.77;7.82;;;;;;;39.97;nan;101154.59;4990111;28;20508;-76